Terminal Aerodrome Forecast
Issued by NWS

Home | Current Version | Previous Version | Graphics & Text | Print | Product List | Glossary On
Versions: 1 2 3 4 5 6 7 8 9 10 11 12 13 14 15 16 17 18
981
FTUS43 KIWX 160520
TAFSBN
TAF
KSBN 160520Z 1606/1706 09003KT P6SM BKN200
     FM161200 12004KT 5SM BR VCSH OVC050
     FM161700 12005KT 2SM BR VCSH OVC008
     FM161900 11005KT 2SM BR VCSH OVC008
     FM162100 10006KT 1SM -RA BR OVC004=

USA.gov is the U.S. government's official web portal to all federal, state and local government web resources and services.